Ukiah, California
Current Conditions -  °F | °C
As of 12:56 AM on Friday 31 Oct 2014 (Local Time) from KUKI Reporting Station
Clear Clear  
Wind Chill: 59°   Ceiling: Unl
Heat Index: 59°   Visibility: 10mi
Dew Point: 54°   Wind: 0mph
Humidity: 83%   Direction: NA
Pressure: 29.88"   Gusts: NA
Location:  39.15°N, 123.2°W
Report Text: KUKI 310756Z AUTO 00000KT 10SM CLR 15/12 A2988 RMK AO2 SLP111 T01500122 402500106
Loading
Personal Weather Stations






























Interactive Weather Map
Tropical Storm Tracking
New forecast layout! Learn more

10-Day Weather Forecast

Advertisements
Track Severe Weather on mobile